createdAt,value
2023-04-18T00:00:49.364Z,9.75
2023-04-18T00:03:16.486Z,9.57
2023-04-18T00:05:48.059Z,8.20
2023-04-18T00:08:14.607Z,9.32
2023-04-18T00:10:41.262Z,8.80
2023-04-18T00:13:07.819Z,9.02
2023-04-18T00:15:37.167Z,9.60
2023-04-18T00:18:03.837Z,9.27
2023-04-18T00:20:30.650Z,8.90
2023-04-18T00:22:57.079Z,9.80
2023-04-18T00:25:23.585Z,10.65
2023-04-18T00:27:49.985Z,10.13
2023-04-18T00:30:16.393Z,10.70
2023-04-18T00:32:43.088Z,9.85
2023-04-18T00:35:09.671Z,9.13
2023-04-18T00:37:37.282Z,11.40
2023-04-18T00:40:05.623Z,8.95
2023-04-18T00:42:32.121Z,9.25
2023-04-18T00:44:58.520Z,10.65
2023-04-18T00:47:25.224Z,13.15
2023-04-18T00:49:52.397Z,9.07
2023-04-18T00:52:18.827Z,10.75
2023-04-18T00:54:45.536Z,9.20
2023-04-18T00:57:12.307Z,10.00
2023-04-18T00:59:38.748Z,9.57
2023-04-18T01:02:05.429Z,11.15
2023-04-18T01:04:34.948Z,8.52
2023-04-18T01:07:02.175Z,8.80
2023-04-18T01:09:28.748Z,7.15
2023-04-18T01:11:55.479Z,8.68
2023-04-18T01:14:22.217Z,7.93
2023-04-18T01:16:48.817Z,9.30
2023-04-18T01:19:15.813Z,9.05
2023-04-18T01:21:43.964Z,10.82
2023-04-18T01:24:12.038Z,9.45
2023-04-18T01:26:38.882Z,9.75
2023-04-18T01:29:05.314Z,8.88
2023-04-18T01:31:36.334Z,11.13
2023-04-18T01:34:03.039Z,10.60
2023-04-18T01:36:29.536Z,8.57
2023-04-18T01:38:56.002Z,10.70
2023-04-18T01:41:22.472Z,9.85
2023-04-18T01:43:48.877Z,10.10
2023-04-18T01:46:15.915Z,9.70
2023-04-18T01:48:42.566Z,9.85
2023-04-18T01:51:09.094Z,10.60
2023-04-18T01:53:35.568Z,9.50
2023-04-18T01:56:01.982Z,10.32
2023-04-18T01:58:28.386Z,8.85
2023-04-18T02:00:54.875Z,8.70
2023-04-18T02:03:21.445Z,10.73
2023-04-18T02:05:47.973Z,8.70
2023-04-18T02:08:14.507Z,9.73
2023-04-18T02:10:41.066Z,10.77
2023-04-18T02:13:07.571Z,10.20
2023-04-18T02:15:34.150Z,10.70
2023-04-18T02:18:01.157Z,10.85
2023-04-18T02:20:28.806Z,10.02
2023-04-18T02:22:55.244Z,11.25
2023-04-18T02:25:23.704Z,11.32
2023-04-18T02:27:50.296Z,11.73
2023-04-18T02:30:17.007Z,10.30
2023-04-18T02:32:44.024Z,11.65
2023-04-18T02:35:11.061Z,11.05
2023-04-18T02:37:37.489Z,11.55
2023-04-18T02:40:05.207Z,18.08
2023-04-18T02:42:31.804Z,10.40
2023-04-18T02:44:58.281Z,10.40
2023-04-18T02:47:24.743Z,13.80
2023-04-18T02:49:51.370Z,11.57
2023-04-18T02:52:17.852Z,17.08
2023-04-18T02:54:44.353Z,11.88
2023-04-18T02:57:10.811Z,13.18
2023-04-18T02:59:37.268Z,11.68
2023-04-18T03:02:03.743Z,12.18
2023-04-18T03:04:30.297Z,13.60
2023-04-18T03:06:57.964Z,13.82
2023-04-18T03:09:24.496Z,12.38
2023-04-18T03:11:51.134Z,9.82
2023-04-18T03:14:17.634Z,9.82
2023-04-18T03:16:44.084Z,10.98
2023-04-18T03:19:10.578Z,10.88
2023-04-18T03:21:37.033Z,12.90
2023-04-18T03:24:03.571Z,12.95
2023-04-18T03:26:30.027Z,11.10
2023-04-18T03:28:56.733Z,10.40
2023-04-18T03:31:23.327Z,12.80
2023-04-18T03:33:51.747Z,11.90
2023-04-18T03:36:18.289Z,12.73
2023-04-18T03:38:44.764Z,12.15
2023-04-18T03:41:11.171Z,13.88
2023-04-18T03:43:37.577Z,14.15
2023-04-18T03:46:04.073Z,15.43
2023-04-18T03:48:30.967Z,11.27
2023-04-18T03:50:57.441Z,11.98
2023-04-18T03:53:23.857Z,13.73
2023-04-18T03:55:50.509Z,11.80
2023-04-18T03:58:18.083Z,11.55
2023-04-18T04:00:44.677Z,12.35
2023-04-18T04:03:11.433Z,13.60
2023-04-18T04:05:38.238Z,12.27
2023-04-18T04:08:04.862Z,13.82
2023-04-18T04:10:31.548Z,12.43
2023-04-18T04:12:58.448Z,13.43
2023-04-18T04:15:25.053Z,14.93
2023-04-18T04:17:51.627Z,15.30
2023-04-18T04:20:24.078Z,13.18
2023-04-18T04:22:52.564Z,14.55
2023-04-18T04:25:19.442Z,13.65
2023-04-18T04:27:46.133Z,13.52
2023-04-18T04:30:13.495Z,13.05
2023-04-18T04:32:40.266Z,15.80
2023-04-18T04:35:09.263Z,15.65
2023-04-18T04:37:35.760Z,15.10
2023-04-18T04:40:02.875Z,20.92
2023-04-18T04:42:29.622Z,12.20
2023-04-18T04:44:56.573Z,16.85
2023-04-18T04:47:23.069Z,16.65
2023-04-18T04:49:49.544Z,14.85
2023-04-18T04:52:16.196Z,15.98
2023-04-18T04:54:44.950Z,18.38
2023-04-18T04:57:11.382Z,14.55
2023-04-18T04:59:37.860Z,17.35
2023-04-18T05:02:04.605Z,17.35
2023-04-18T05:04:31.237Z,16.75
2023-04-18T05:06:57.758Z,16.83
2023-04-18T05:09:24.169Z,15.88
2023-04-18T05:11:50.746Z,14.65
2023-04-18T05:14:17.805Z,16.00
2023-04-18T05:16:44.250Z,20.25
2023-04-18T05:19:11.074Z,18.20
2023-04-18T05:21:37.691Z,14.70
2023-04-18T05:24:04.157Z,16.00
2023-04-18T05:26:30.825Z,14.10
2023-04-18T05:28:57.230Z,18.42
2023-04-18T05:31:23.954Z,16.17
2023-04-18T05:33:50.552Z,15.90
2023-04-18T05:36:16.962Z,16.38
2023-04-18T05:38:43.780Z,14.48
2023-04-18T05:41:10.344Z,14.95
2023-04-18T05:43:36.817Z,15.13
2023-04-18T05:46:03.285Z,13.85
2023-04-18T05:48:29.996Z,13.68
2023-04-18T05:50:56.463Z,14.43
2023-04-18T05:53:25.393Z,12.00
2023-04-18T05:55:51.988Z,13.20
2023-04-18T05:58:19.645Z,14.18
2023-04-18T06:00:48.108Z,12.60
2023-04-18T06:03:15.803Z,12.90
2023-04-18T06:05:45.569Z,13.20
2023-04-18T06:08:12.208Z,15.55
2023-04-18T06:10:39.244Z,13.70
2023-04-18T06:13:05.822Z,12.18
2023-04-18T06:15:32.214Z,13.35
2023-04-18T06:17:58.901Z,13.05
2023-04-18T06:20:25.505Z,12.55
2023-04-18T06:22:51.907Z,16.73
2023-04-18T06:25:18.748Z,13.38
2023-04-18T06:27:45.182Z,12.35
2023-04-18T06:30:11.729Z,12.07
2023-04-18T06:32:38.254Z,12.73
2023-04-18T06:35:04.933Z,12.65
2023-04-18T06:37:31.347Z,12.13
2023-04-18T06:39:58.637Z,12.25
2023-04-18T06:42:25.300Z,12.20
2023-04-18T06:44:51.729Z,11.77
2023-04-18T06:47:18.220Z,13.45
2023-04-18T06:49:44.770Z,9.93
2023-04-18T06:52:11.209Z,11.90
2023-04-18T06:54:37.662Z,13.75
2023-04-18T06:57:04.141Z,14.65
2023-04-18T06:59:30.813Z,11.48
2023-04-18T07:01:57.322Z,11.05
2023-04-18T07:04:23.907Z,10.60
2023-04-18T07:06:51.590Z,11.10
2023-04-18T07:09:18.283Z,11.20
2023-04-18T07:11:44.804Z,10.63
2023-04-18T07:14:12.375Z,10.75
2023-04-18T07:16:39.097Z,9.23
2023-04-18T07:19:05.860Z,9.43
2023-04-18T07:21:32.289Z,11.02
2023-04-18T07:23:58.796Z,10.55
2023-04-18T07:26:27.650Z,8.65
2023-04-18T07:28:54.133Z,8.23
2023-04-18T07:31:20.681Z,8.48
2023-04-18T07:33:47.179Z,7.90
2023-04-18T07:36:13.629Z,6.88
2023-04-18T07:38:40.293Z,7.15
2023-04-18T07:41:06.749Z,6.50
2023-04-18T07:43:33.324Z,5.80
2023-04-18T07:45:59.912Z,5.97
2023-04-18T07:48:26.912Z,6.53
2023-04-18T07:50:53.458Z,7.75
2023-04-18T07:53:20.103Z,7.53
2023-04-18T07:55:46.680Z,7.00
2023-04-18T07:58:13.123Z,8.10
2023-04-18T08:00:40.512Z,9.05
2023-04-18T08:03:07.811Z,6.38
2023-04-18T08:05:34.754Z,7.43
2023-04-18T08:08:01.377Z,8.80
2023-04-18T08:10:28.098Z,7.32
2023-04-18T08:12:54.581Z,9.27
2023-04-18T08:15:21.163Z,8.40
2023-04-18T08:17:49.191Z,10.77
2023-04-18T08:20:15.895Z,7.40
2023-04-18T08:23:01.305Z,9.13
2023-04-18T08:25:29.734Z,9.52
2023-04-18T08:27:56.304Z,8.90
2023-04-18T08:30:22.725Z,8.40
2023-04-18T08:32:49.798Z,7.75
2023-04-18T08:35:16.539Z,10.02
2023-04-18T08:37:43.530Z,8.60
2023-04-18T08:40:10.337Z,8.93
2023-04-18T08:42:38.712Z,12.30
2023-04-18T08:45:06.009Z,13.63
2023-04-18T08:47:32.523Z,12.00
2023-04-18T08:49:58.990Z,12.52
2023-04-18T08:52:26.168Z,16.67
2023-04-18T08:54:52.693Z,12.07
2023-04-18T08:57:27.108Z,16.52
2023-04-18T08:59:54.147Z,16.33
2023-04-18T09:02:23.519Z,14.68
2023-04-18T09:04:52.780Z,15.30
2023-04-18T09:07:28.653Z,15.73
2023-04-18T09:09:57.283Z,12.90
2023-04-18T09:12:24.175Z,13.93
2023-04-18T09:14:51.591Z,13.90
2023-04-18T09:17:34.530Z,13.82
2023-04-18T09:20:01.532Z,13.43
2023-04-18T09:22:45.960Z,13.25
2023-04-18T09:25:14.395Z,16.50
2023-04-18T09:27:40.887Z,15.35
2023-04-18T09:30:07.809Z,13.48
2023-04-18T09:32:34.309Z,14.05
2023-04-18T09:35:04.035Z,14.40
2023-04-18T09:37:31.200Z,14.48
2023-04-18T09:39:57.615Z,14.55
2023-04-18T09:42:26.131Z,15.80
2023-04-18T09:45:06.867Z,13.82
2023-04-18T09:47:35.069Z,13.77
2023-04-18T09:50:05.114Z,16.10
2023-04-18T09:52:32.833Z,15.57
2023-04-18T09:54:59.412Z,18.17
2023-04-18T09:57:26.606Z,15.95
2023-04-18T09:59:59.177Z,14.15
2023-04-18T10:02:25.778Z,15.95
2023-04-18T10:04:52.426Z,17.88
2023-04-18T10:07:19.117Z,14.43
2023-04-18T10:09:45.697Z,16.30
2023-04-18T10:12:15.076Z,19.23
2023-04-18T10:14:46.248Z,16.85
2023-04-18T10:17:14.204Z,14.18
2023-04-18T10:19:46.176Z,14.55
2023-04-18T10:22:13.354Z,14.48
2023-04-18T10:24:47.128Z,14.98
2023-04-18T10:27:13.664Z,14.73
2023-04-18T10:30:08.980Z,13.32
2023-04-18T10:32:35.749Z,12.73
2023-04-18T10:35:02.215Z,12.98
2023-04-18T10:37:29.025Z,13.15
2023-04-18T10:40:00.293Z,12.65
2023-04-18T10:42:45.421Z,13.75
2023-04-18T10:45:21.737Z,13.18
2023-04-18T10:47:48.649Z,15.27
2023-04-18T10:50:15.275Z,11.50
2023-04-18T10:52:42.050Z,13.25
2023-04-18T10:55:13.383Z,14.52
2023-04-18T10:57:43.561Z,16.13
2023-04-18T11:00:11.808Z,12.45
2023-04-18T11:02:39.298Z,13.80
2023-04-18T11:05:06.677Z,15.57
2023-04-18T11:07:34.090Z,13.48
2023-04-18T11:10:00.923Z,15.30
2023-04-18T11:12:36.083Z,13.38
2023-04-18T11:15:03.435Z,15.60
2023-04-18T11:17:32.963Z,13.73
2023-04-18T11:20:06.030Z,13.30
2023-04-18T11:22:32.496Z,12.70
2023-04-18T11:24:59.827Z,10.65
2023-04-18T11:27:27.029Z,10.63
2023-04-18T11:29:54.255Z,12.05
2023-04-18T11:32:22.348Z,15.25
2023-04-18T11:34:51.255Z,10.73
2023-04-18T11:37:17.666Z,12.88
2023-04-18T11:39:44.597Z,10.07
2023-04-18T11:42:11.501Z,9.95
2023-04-18T11:44:40.017Z,13.65
2023-04-18T11:47:25.030Z,14.20
2023-04-18T11:50:01.996Z,11.68
2023-04-18T11:52:29.025Z,12.20
2023-04-18T11:54:56.335Z,14.35
2023-04-18T11:57:26.596Z,13.30
2023-04-18T11:59:54.085Z,10.40
2023-04-18T12:02:21.149Z,14.63
2023-04-18T12:04:57.808Z,14.98
2023-04-18T12:07:34.314Z,10.40
2023-04-18T12:10:01.146Z,14.00
2023-04-18T12:12:27.856Z,13.07
2023-04-18T12:14:58.282Z,12.23
2023-04-18T12:17:28.113Z,9.85
2023-04-18T12:19:55.636Z,9.40
2023-04-18T12:22:41.997Z,12.05
2023-04-18T12:25:26.990Z,13.98
2023-04-18T12:30:22.134Z,10.00
2023-04-18T12:32:49.186Z,10.30
2023-04-18T12:35:16.349Z,9.50
2023-04-18T12:37:42.874Z,11.43
2023-04-18T12:40:09.542Z,13.98
2023-04-18T12:42:36.136Z,9.98
2023-04-18T12:45:03.730Z,11.02
2023-04-18T12:47:30.226Z,7.60
2023-04-18T12:49:56.686Z,11.23
2023-04-18T12:52:23.154Z,8.77
2023-04-18T12:54:49.634Z,11.05
2023-04-18T12:57:16.557Z,10.68
2023-04-18T12:59:43.120Z,8.80
2023-04-18T13:02:09.616Z,8.95
2023-04-18T13:04:36.442Z,9.10
2023-04-18T13:07:03.080Z,10.15
2023-04-18T13:09:29.492Z,9.50
2023-04-18T13:11:55.979Z,12.25
2023-04-18T13:14:22.432Z,8.05
2023-04-18T13:16:48.912Z,10.05
2023-04-18T13:19:15.561Z,9.50
2023-04-18T13:21:42.190Z,8.32
2023-04-18T13:24:08.628Z,9.35
2023-04-18T13:26:36.153Z,7.35
2023-04-18T13:29:02.633Z,8.07
2023-04-18T13:31:29.229Z,9.02
2023-04-18T13:33:55.980Z,8.45
2023-04-18T13:36:23.658Z,8.32
2023-04-18T13:38:51.216Z,8.32
2023-04-18T13:41:17.684Z,10.35
2023-04-18T13:43:44.090Z,7.03
2023-04-18T13:46:10.733Z,11.98
2023-04-18T13:48:37.285Z,7.68
2023-04-18T13:51:03.792Z,9.93
2023-04-18T13:53:31.233Z,9.57
2023-04-18T13:55:57.862Z,8.35
2023-04-18T13:58:24.532Z,11.82
2023-04-18T14:00:51.341Z,9.27
2023-04-18T14:03:17.945Z,10.38
2023-04-18T14:05:44.686Z,8.65
2023-04-18T14:08:11.322Z,8.73
2023-04-18T14:10:37.941Z,7.63
2023-04-18T14:13:04.374Z,8.65
2023-04-18T14:15:33.213Z,7.80
2023-04-18T14:18:01.081Z,7.90
2023-04-18T14:20:34.346Z,17.52
2023-04-18T14:23:01.975Z,8.52
2023-04-18T14:25:29.007Z,6.90
2023-04-18T14:28:11.116Z,7.03
2023-04-18T14:30:37.982Z,8.07
2023-04-18T14:33:04.589Z,9.18
2023-04-18T14:35:31.329Z,7.43
2023-04-18T14:37:58.049Z,7.57
2023-04-18T14:40:24.607Z,12.00
2023-04-18T14:42:51.258Z,6.43
2023-04-18T14:45:19.919Z,7.30
2023-04-18T14:47:46.523Z,5.82
2023-04-18T14:50:13.073Z,8.07
2023-04-18T14:52:39.949Z,8.70
2023-04-18T14:55:06.977Z,7.30
2023-04-18T14:57:36.684Z,8.13
2023-04-18T15:00:05.537Z,10.20
2023-04-18T15:02:32.374Z,24.65
2023-04-18T15:04:59.212Z,5.70
2023-04-18T15:07:25.768Z,8.70
2023-04-18T15:09:52.199Z,7.18
2023-04-18T15:12:18.766Z,10.25
2023-04-18T15:14:45.273Z,8.18
2023-04-18T15:17:11.736Z,8.88
2023-04-18T15:19:38.250Z,7.13
2023-04-18T15:22:04.727Z,8.18
2023-04-18T15:24:31.317Z,7.57
2023-04-18T15:26:58.806Z,8.45
2023-04-18T15:29:25.322Z,7.97
2023-04-18T15:31:51.846Z,7.25
2023-04-18T15:34:18.356Z,9.07
2023-04-18T15:36:45.286Z,8.20
2023-04-18T15:39:11.718Z,5.53
2023-04-18T15:41:38.238Z,6.10
2023-04-18T15:44:06.060Z,6.63
2023-04-18T15:46:34.878Z,6.72
2023-04-18T15:49:01.855Z,6.43
2023-04-18T15:51:28.466Z,8.60
2023-04-18T15:53:55.046Z,6.03
2023-04-18T15:56:21.684Z,6.80
2023-04-18T15:58:48.155Z,6.90
2023-04-18T16:01:15.906Z,7.72
2023-04-18T16:03:42.787Z,8.55
2023-04-18T16:06:13.766Z,6.20
2023-04-18T16:08:40.384Z,6.45
2023-04-18T16:11:07.197Z,6.07
2023-04-18T16:13:38.253Z,4.85
2023-04-18T16:16:05.680Z,5.95
2023-04-18T16:18:32.286Z,4.18
2023-04-18T16:20:58.815Z,5.00
2023-04-18T16:23:25.664Z,5.10
2023-04-18T16:25:54.911Z,4.70
2023-04-18T16:28:21.699Z,6.53
2023-04-18T16:30:48.561Z,5.00
2023-04-18T16:33:15.288Z,6.32
2023-04-18T16:35:41.912Z,5.05
2023-04-18T16:38:08.407Z,7.70
2023-04-18T16:40:36.491Z,6.05
2023-04-18T16:43:02.945Z,4.55
2023-04-18T16:45:29.458Z,5.55
2023-04-18T16:47:56.822Z,5.45
2023-04-18T16:50:23.437Z,7.72
2023-04-18T16:52:49.938Z,6.82
2023-04-18T16:55:16.705Z,5.43
2023-04-18T16:57:43.255Z,5.28
2023-04-18T17:00:10.500Z,7.00
2023-04-18T17:02:39.680Z,4.90
2023-04-18T17:05:06.807Z,5.30
2023-04-18T17:07:33.234Z,4.68
2023-04-18T17:09:59.696Z,6.30
2023-04-18T17:12:26.520Z,7.20
2023-04-18T17:14:52.961Z,5.15
2023-04-18T17:17:19.457Z,6.65
2023-04-18T17:19:46.586Z,7.75
2023-04-18T17:22:14.841Z,6.20
2023-04-18T17:24:42.498Z,5.32
2023-04-18T17:27:09.937Z,5.15
2023-04-18T17:29:37.901Z,5.97
2023-04-18T17:32:04.669Z,5.93
2023-04-18T17:34:31.099Z,6.75
2023-04-18T17:36:57.633Z,10.40
2023-04-18T17:39:24.860Z,6.82
2023-04-18T17:41:51.322Z,8.25
2023-04-18T17:44:17.776Z,7.95
2023-04-18T17:46:44.343Z,9.50
2023-04-18T17:49:11.446Z,5.78
2023-04-18T17:51:38.270Z,6.95
2023-04-18T17:54:05.520Z,10.05
2023-04-18T17:56:32.556Z,7.93
2023-04-18T17:58:59.024Z,5.22
2023-04-18T18:01:26.481Z,6.35
2023-04-18T18:03:53.909Z,8.52
2023-04-18T18:06:20.669Z,5.88
2023-04-18T18:08:47.229Z,8.05
2023-04-18T18:11:13.702Z,7.35
2023-04-18T18:13:40.304Z,7.75
2023-04-18T18:16:06.966Z,6.70
2023-04-18T18:18:33.535Z,8.00
2023-04-18T18:21:00.053Z,5.70
2023-04-18T18:23:26.730Z,5.70
2023-04-18T18:25:53.431Z,7.18
2023-04-18T18:28:20.619Z,6.50
2023-04-18T18:30:47.175Z,6.43
2023-04-18T18:33:13.984Z,8.73
2023-04-18T18:35:40.487Z,6.03
2023-04-18T18:38:07.339Z,6.82
2023-04-18T18:40:34.284Z,6.93
2023-04-18T18:43:00.780Z,5.40
2023-04-18T18:45:27.296Z,5.90
2023-04-18T18:47:53.779Z,7.13
2023-04-18T18:50:20.300Z,6.25
2023-04-18T18:52:46.966Z,6.70
2023-04-18T18:55:13.560Z,6.18
2023-04-18T18:57:40.081Z,6.30
2023-04-18T19:00:09.743Z,9.18
2023-04-18T19:02:36.462Z,6.93
2023-04-18T19:05:03.917Z,6.35
2023-04-18T19:07:30.709Z,7.57
2023-04-18T19:09:57.189Z,8.27
2023-04-18T19:12:23.688Z,7.50
2023-04-18T19:14:50.194Z,7.07
2023-04-18T19:17:24.708Z,7.30
2023-04-18T19:19:51.960Z,7.45
2023-04-18T19:22:18.504Z,6.95
2023-04-18T19:24:44.945Z,6.72
2023-04-18T19:27:11.453Z,6.60
2023-04-18T19:29:37.968Z,6.80
2023-04-18T19:32:04.658Z,8.00
2023-04-18T19:34:31.256Z,7.20
2023-04-18T19:36:57.785Z,6.85
2023-04-18T19:39:24.239Z,6.95
2023-04-18T19:41:50.722Z,10.57
2023-04-18T19:44:17.225Z,9.00
2023-04-18T19:46:43.912Z,11.27
2023-04-18T19:49:10.396Z,11.93
2023-04-18T19:51:36.870Z,10.82
2023-04-18T19:54:04.751Z,13.20
2023-04-18T19:56:31.786Z,7.60
2023-04-18T19:58:58.472Z,10.68
2023-04-18T20:01:25.913Z,11.40
2023-04-18T20:06:20.418Z,8.60
2023-04-18T20:08:46.975Z,11.48
2023-04-18T20:11:16.527Z,11.98
2023-04-18T20:13:42.973Z,19.80
2023-04-18T20:16:09.552Z,15.90
2023-04-18T20:18:39.506Z,13.25
2023-04-18T20:21:06.495Z,19.08
2023-04-18T20:23:33.211Z,17.40
2023-04-18T20:25:59.695Z,19.25
2023-04-18T20:28:26.141Z,15.88
2023-04-18T20:30:52.692Z,17.77
2023-04-18T20:33:19.183Z,19.50
2023-04-18T20:35:46.807Z,21.63
2023-04-18T20:38:15.018Z,20.52
2023-04-18T20:40:45.040Z,20.65
2023-04-18T20:43:12.772Z,20.55
2023-04-18T20:45:42.880Z,24.00
2023-04-18T20:48:09.700Z,21.33
2023-04-18T20:50:36.190Z,23.73
2023-04-18T20:53:04.083Z,21.35
2023-04-18T20:55:30.601Z,23.13
2023-04-18T20:57:57.256Z,24.98
2023-04-18T21:00:23.796Z,26.50
2023-04-18T21:02:50.457Z,26.10
2023-04-18T21:05:17.103Z,25.85
2023-04-18T21:07:45.685Z,27.40
2023-04-18T21:10:12.467Z,28.05
2023-04-18T21:12:38.955Z,27.35
2023-04-18T21:15:05.852Z,30.00
2023-04-18T21:17:32.399Z,28.42
2023-04-18T21:19:58.942Z,29.63
2023-04-18T21:22:25.488Z,33.17
2023-04-18T21:24:51.990Z,28.77
2023-04-18T21:27:18.496Z,29.23
2023-04-18T21:29:45.020Z,28.17
2023-04-18T21:32:11.528Z,26.13
2023-04-18T21:34:38.050Z,27.48
2023-04-18T21:37:04.598Z,32.28
2023-04-18T21:39:31.238Z,25.98
2023-04-18T21:41:58.254Z,32.45
2023-04-18T21:44:24.859Z,29.08
2023-04-18T21:46:51.429Z,27.50
2023-04-18T21:49:18.318Z,28.05
2023-04-18T21:51:45.430Z,33.40
2023-04-18T21:54:12.015Z,28.13
2023-04-18T21:56:38.760Z,29.27
2023-04-18T21:59:05.366Z,25.70
2023-04-18T22:01:34.498Z,27.38
2023-04-18T22:04:01.867Z,26.25
2023-04-18T22:06:29.066Z,22.27
2023-04-18T22:08:55.508Z,27.77
2023-04-18T22:11:23.743Z,27.83
2023-04-18T22:13:54.133Z,24.92
2023-04-18T22:16:24.528Z,24.40
2023-04-18T22:18:51.044Z,23.90
2023-04-18T22:21:17.529Z,25.23
2023-04-18T22:23:44.045Z,28.00
2023-04-18T22:26:10.698Z,26.08
2023-04-18T22:28:37.194Z,28.48
2023-04-18T22:31:03.831Z,25.50
2023-04-18T22:33:30.286Z,21.63
2023-04-18T22:35:56.826Z,21.95
2023-04-18T22:38:23.364Z,19.75
2023-04-18T22:40:49.858Z,20.38
2023-04-18T22:43:16.994Z,21.13
2023-04-18T22:45:43.847Z,19.75
2023-04-18T22:48:12.807Z,18.33
2023-04-18T22:50:43.058Z,20.63
2023-04-18T22:53:12.675Z,20.63
2023-04-18T22:55:39.931Z,26.15
2023-04-18T22:58:06.586Z,27.00
2023-04-18T23:00:33.096Z,30.60
2023-04-18T23:02:59.750Z,27.90
2023-04-18T23:05:26.387Z,24.42
2023-04-18T23:07:52.869Z,27.13
2023-04-18T23:10:19.326Z,26.95
2023-04-18T23:12:45.961Z,33.90
2023-04-18T23:15:12.806Z,31.73
2023-04-18T23:17:39.522Z,24.85
2023-04-18T23:20:10.797Z,26.98
2023-04-18T23:22:37.578Z,29.92
2023-04-18T23:25:04.416Z,31.48
2023-04-18T23:27:30.921Z,28.02
2023-04-18T23:29:57.833Z,31.02
2023-04-18T23:32:24.363Z,29.35
2023-04-18T23:34:51.334Z,27.05
2023-04-18T23:37:17.966Z,26.88
2023-04-18T23:39:44.621Z,23.58
2023-04-18T23:42:11.502Z,25.60
2023-04-18T23:44:38.132Z,26.05
2023-04-18T23:47:04.759Z,26.88
2023-04-18T23:49:31.296Z,26.08
2023-04-18T23:51:57.759Z,24.52
2023-04-18T23:54:24.217Z,31.20
2023-04-18T23:56:50.806Z,28.73
2023-04-18T23:59:17.432Z,25.65
